createdAt,value
2019-03-31T00:01:57.257Z,40.10
2019-03-31T00:04:23.652Z,39.50
2019-03-31T00:06:50.156Z,39.20
2019-03-31T00:09:16.556Z,39.20
2019-03-31T00:11:42.860Z,39.60
2019-03-31T00:14:09.485Z,39.60
2019-03-31T00:16:35.903Z,39.70
2019-03-31T00:19:02.284Z,39.70
2019-03-31T00:21:28.995Z,39.70
2019-03-31T00:23:55.425Z,40.40
2019-03-31T00:26:22.044Z,39.60
2019-03-31T00:28:48.491Z,39.60
2019-03-31T00:31:22.056Z,39.70
2019-03-31T00:33:43.381Z,39.70
2019-03-31T00:36:09.773Z,39.90
2019-03-31T00:38:36.320Z,40.10
2019-03-31T00:41:02.904Z,41.60
2019-03-31T00:43:29.351Z,40.30
2019-03-31T00:45:55.961Z,40.30
2019-03-31T00:48:22.505Z,40.20
2019-03-31T00:50:49.202Z,40.20
2019-03-31T00:53:15.739Z,40.20
2019-03-31T00:55:43.226Z,40.20
2019-03-31T00:58:09.793Z,40.10
2019-03-31T01:00:38.176Z,39.60
2019-03-31T01:03:06.810Z,39.20
2019-03-31T01:05:35.216Z,39.00
2019-03-31T01:08:03.163Z,38.80
2019-03-31T01:10:29.975Z,38.20
2019-03-31T01:12:57.404Z,38.00
2019-03-31T01:15:26.011Z,38.00
2019-03-31T01:17:53.344Z,38.20
2019-03-31T01:20:19.888Z,38.20
2019-03-31T01:22:46.734Z,37.70
2019-03-31T01:25:16.182Z,37.50
2019-03-31T01:27:42.973Z,37.60
2019-03-31T01:30:11.504Z,37.60
2019-03-31T01:32:37.988Z,37.10
2019-03-31T01:35:05.625Z,37.00
2019-03-31T01:37:32.224Z,36.80
2019-03-31T01:39:58.962Z,36.40
2019-03-31T01:42:25.879Z,36.40
2019-03-31T01:44:53.609Z,36.70
2019-03-31T01:47:21.040Z,36.40
2019-03-31T01:49:47.655Z,36.40
2019-03-31T01:52:14.282Z,36.50
2019-03-31T01:54:40.684Z,36.40
2019-03-31T01:57:07.123Z,37.00
2019-03-31T01:59:53.365Z,37.00
2019-03-31T02:02:25.554Z,36.90
2019-03-31T02:04:52.167Z,36.80
2019-03-31T02:07:19.673Z,37.00
2019-03-31T02:09:46.286Z,37.10
2019-03-31T02:12:12.610Z,36.50
2019-03-31T02:14:39.102Z,36.40
2019-03-31T02:17:05.839Z,36.10
2019-03-31T02:19:32.257Z,36.00
2019-03-31T02:21:58.686Z,36.00
2019-03-31T02:24:25.200Z,36.00
2019-03-31T02:26:51.625Z,36.20
2019-03-31T02:29:18.157Z,37.00
2019-03-31T02:31:44.697Z,37.00
2019-03-31T02:34:11.402Z,37.40
2019-03-31T02:36:39.009Z,36.80
2019-03-31T02:39:05.509Z,36.30
2019-03-31T02:41:32.332Z,36.60
2019-03-31T02:43:58.843Z,36.80
2019-03-31T02:46:25.354Z,37.10
2019-03-31T02:48:51.875Z,37.40
2019-03-31T02:51:18.278Z,37.00
2019-03-31T02:53:44.795Z,37.10
2019-03-31T02:56:12.502Z,37.30
2019-03-31T02:58:39.453Z,37.40
2019-03-31T03:01:06.344Z,37.20
2019-03-31T03:03:35.567Z,36.90
2019-03-31T03:06:04.455Z,37.00
2019-03-31T03:08:33.187Z,37.30
2019-03-31T03:11:00.603Z,37.80
2019-03-31T03:13:38.312Z,38.20
2019-03-31T03:16:08.447Z,37.90
2019-03-31T03:18:34.894Z,37.80
2019-03-31T03:21:01.357Z,38.10
2019-03-31T03:23:27.673Z,38.30
2019-03-31T03:25:56.334Z,38.80
2019-03-31T03:28:22.421Z,39.10
2019-03-31T03:30:49.238Z,38.70
2019-03-31T03:33:17.966Z,38.10
2019-03-31T03:35:44.390Z,38.30
2019-03-31T03:38:10.694Z,38.70
2019-03-31T03:40:56.972Z,38.70
2019-03-31T03:43:23.515Z,38.60
2019-03-31T03:45:49.826Z,38.50
2019-03-31T03:48:16.134Z,38.90
2019-03-31T03:50:42.539Z,39.80
2019-03-31T03:53:08.853Z,40.40
2019-03-31T03:55:35.385Z,40.40
2019-03-31T03:58:01.995Z,40.90
2019-03-31T04:00:28.696Z,41.00
2019-03-31T04:02:55.011Z,40.70
2019-03-31T04:05:21.559Z,41.10
2019-03-31T04:07:48.033Z,41.60
2019-03-31T04:10:44.348Z,42.60
2019-03-31T04:13:10.934Z,42.80
2019-03-31T04:15:57.229Z,43.80
2019-03-31T04:18:23.659Z,44.10
2019-03-31T04:20:49.970Z,43.90
2019-03-31T04:23:16.557Z,44.00
2019-03-31T04:25:43.094Z,44.30
2019-03-31T04:28:09.700Z,44.80
2019-03-31T04:30:36.126Z,44.20
2019-03-31T04:33:02.467Z,44.20
2019-03-31T04:35:28.994Z,44.70
2019-03-31T04:37:55.616Z,46.30
2019-03-31T04:40:21.986Z,46.90
2019-03-31T04:42:49.344Z,47.90
2019-03-31T04:45:15.831Z,48.50
2019-03-31T04:47:42.274Z,49.20
2019-03-31T04:50:08.772Z,48.70
2019-03-31T04:52:35.202Z,48.40
2019-03-31T04:55:01.807Z,48.40
2019-03-31T04:57:28.565Z,47.90
2019-03-31T04:59:55.176Z,48.00
2019-03-31T05:02:21.688Z,49.00
2019-03-31T05:04:48.116Z,49.70
2019-03-31T05:07:14.601Z,50.30
2019-03-31T05:09:40.931Z,50.90
2019-03-31T05:12:07.413Z,52.10
2019-03-31T05:14:33.825Z,52.40
2019-03-31T05:17:00.246Z,52.70
2019-03-31T05:19:27.764Z,53.50
2019-03-31T05:21:54.071Z,52.80
2019-03-31T05:24:20.394Z,53.10
2019-03-31T05:26:46.694Z,53.30
2019-03-31T05:29:13.146Z,53.70
2019-03-31T05:31:39.681Z,53.40
2019-03-31T05:34:18.356Z,52.60
2019-03-31T05:36:34.718Z,52.80
2019-03-31T05:39:01.004Z,52.90
2019-03-31T05:41:27.321Z,54.60
2019-03-31T05:44:05.072Z,55.10
2019-03-31T05:46:22.283Z,55.50
2019-03-31T05:48:48.572Z,55.70
2019-03-31T05:51:16.101Z,55.70
2019-03-31T05:53:42.647Z,54.60
2019-03-31T05:56:09.240Z,54.60
2019-03-31T05:58:35.782Z,54.40
2019-03-31T06:01:02.166Z,54.10
2019-03-31T06:03:28.911Z,53.80
2019-03-31T06:05:55.446Z,53.30
2019-03-31T06:08:21.976Z,53.00
2019-03-31T06:10:48.468Z,52.50
2019-03-31T06:13:15.082Z,52.00
2019-03-31T06:15:41.504Z,51.30
2019-03-31T06:18:07.904Z,51.60
2019-03-31T06:20:34.542Z,51.80
2019-03-31T06:23:02.373Z,51.40
2019-03-31T06:25:29.090Z,50.50
2019-03-31T06:27:55.781Z,50.50
2019-03-31T06:30:22.331Z,51.00
2019-03-31T06:32:48.977Z,50.90
2019-03-31T06:35:15.526Z,50.60
2019-03-31T06:37:43.581Z,50.50
2019-03-31T06:40:10.373Z,50.20
2019-03-31T06:42:36.815Z,49.60
2019-03-31T06:45:05.879Z,48.70
2019-03-31T06:47:32.384Z,48.90
2019-03-31T06:49:58.804Z,48.60
2019-03-31T06:52:25.430Z,48.30
2019-03-31T06:54:51.855Z,48.00
2019-03-31T06:57:18.305Z,47.70
2019-03-31T06:59:44.911Z,47.90
2019-03-31T07:02:11.492Z,49.10
2019-03-31T07:04:38.142Z,49.50
2019-03-31T07:07:06.146Z,49.90
2019-03-31T07:09:33.584Z,49.80
2019-03-31T07:11:59.992Z,49.50
2019-03-31T07:14:28.932Z,48.60
2019-03-31T07:16:55.682Z,48.00
2019-03-31T07:19:22.589Z,47.80
2019-03-31T07:21:49.103Z,48.00
2019-03-31T07:24:15.759Z,48.30
2019-03-31T07:26:42.257Z,48.00
2019-03-31T07:29:08.731Z,48.00
2019-03-31T07:31:45.771Z,47.80
2019-03-31T07:34:12.183Z,48.40
2019-03-31T07:36:38.779Z,48.70
2019-03-31T07:39:05.763Z,49.20
2019-03-31T07:41:34.073Z,49.10
2019-03-31T07:44:00.422Z,48.90
2019-03-31T07:46:26.856Z,48.50
2019-03-31T07:48:53.479Z,48.40
2019-03-31T07:51:20.158Z,48.50
2019-03-31T07:53:46.554Z,48.80
2019-03-31T07:56:15.984Z,48.90
2019-03-31T07:58:41.279Z,48.90
2019-03-31T08:01:07.605Z,48.80
2019-03-31T08:03:34.031Z,48.10
2019-03-31T08:06:00.550Z,47.60
2019-03-31T08:08:26.965Z,46.40
2019-03-31T08:10:53.376Z,45.90
2019-03-31T08:13:19.785Z,45.30
2019-03-31T08:15:46.418Z,45.30
2019-03-31T08:18:12.970Z,45.10
2019-03-31T08:20:39.498Z,44.40
2019-03-31T08:23:06.036Z,43.90
2019-03-31T08:25:32.583Z,44.00
2019-03-31T08:28:00.365Z,44.10
2019-03-31T08:30:26.893Z,44.40
2019-03-31T08:32:53.318Z,45.00
2019-03-31T08:35:19.730Z,45.10
2019-03-31T08:37:46.035Z,45.80
2019-03-31T08:40:13.042Z,45.60
2019-03-31T08:42:39.556Z,45.00
2019-03-31T08:45:06.309Z,44.60
2019-03-31T08:47:32.858Z,44.40
2019-03-31T08:50:02.112Z,43.80
2019-03-31T08:52:27.591Z,43.60
2019-03-31T08:54:54.116Z,43.60
2019-03-31T08:57:20.467Z,43.60
2019-03-31T08:59:46.865Z,43.90
2019-03-31T09:02:30.320Z,43.80
2019-03-31T09:04:56.654Z,43.60
2019-03-31T09:07:23.233Z,42.60
2019-03-31T09:09:49.660Z,42.80
2019-03-31T09:12:16.318Z,42.40
2019-03-31T09:14:42.961Z,42.40
2019-03-31T09:17:09.485Z,42.00
2019-03-31T09:19:36.005Z,42.10
2019-03-31T09:22:02.400Z,41.90
2019-03-31T09:24:28.762Z,42.10
2019-03-31T09:26:55.232Z,42.50
2019-03-31T09:29:22.872Z,42.70
2019-03-31T09:31:49.345Z,42.00
2019-03-31T09:34:15.818Z,42.60
2019-03-31T09:36:42.224Z,42.10
2019-03-31T09:39:08.546Z,41.40
2019-03-31T09:41:34.983Z,41.20
2019-03-31T09:44:01.382Z,41.40
2019-03-31T09:46:27.796Z,41.70
2019-03-31T09:48:54.451Z,41.50
2019-03-31T09:51:20.981Z,42.00
2019-03-31T09:54:07.138Z,41.70
2019-03-31T09:56:33.755Z,41.80
2019-03-31T09:59:00.243Z,41.20
2019-03-31T10:01:26.849Z,41.40
2019-03-31T10:03:53.344Z,41.00
2019-03-31T10:06:30.032Z,40.60
2019-03-31T10:08:48.307Z,41.10
2019-03-31T10:11:14.920Z,41.90
2019-03-31T10:13:41.332Z,40.20
2019-03-31T10:16:07.741Z,41.50
2019-03-31T10:18:34.376Z,41.30
2019-03-31T10:21:00.990Z,41.30
2019-03-31T10:23:27.484Z,40.30
2019-03-31T10:25:53.909Z,40.00
2019-03-31T10:28:20.215Z,40.30
2019-03-31T10:30:46.855Z,40.10
2019-03-31T10:33:13.356Z,39.80
2019-03-31T10:35:39.761Z,40.20
2019-03-31T10:38:06.509Z,39.80
2019-03-31T10:40:33.228Z,39.50
2019-03-31T10:42:59.740Z,38.70
2019-03-31T10:45:26.241Z,38.60
2019-03-31T10:47:52.998Z,38.50
2019-03-31T10:50:19.613Z,38.20
2019-03-31T10:52:46.221Z,38.10
2019-03-31T10:55:13.724Z,35.70
2019-03-31T10:57:40.264Z,36.10
2019-03-31T11:00:08.596Z,34.50
2019-03-31T11:02:35.290Z,36.00
2019-03-31T11:05:01.720Z,37.30
2019-03-31T11:07:28.245Z,37.30
2019-03-31T11:09:54.988Z,36.30
2019-03-31T11:12:21.522Z,36.50
2019-03-31T11:14:47.953Z,39.10
2019-03-31T11:17:14.363Z,37.20
2019-03-31T11:19:40.795Z,37.20
2019-03-31T11:22:09.093Z,37.10
2019-03-31T11:24:35.643Z,37.20
2019-03-31T11:27:02.148Z,36.90
2019-03-31T11:29:28.704Z,36.60
2019-03-31T11:31:55.199Z,36.20
2019-03-31T11:34:21.795Z,36.50
2019-03-31T11:36:48.275Z,36.90
2019-03-31T11:39:16.416Z,36.20
2019-03-31T11:41:43.231Z,35.80
2019-03-31T11:44:09.890Z,36.30
2019-03-31T11:46:37.394Z,36.80
2019-03-31T11:49:03.926Z,35.60
2019-03-31T11:51:30.387Z,33.80
2019-03-31T11:53:56.895Z,33.00
2019-03-31T11:56:24.740Z,32.90
2019-03-31T11:58:51.230Z,31.90
2019-03-31T12:01:17.654Z,32.10
2019-03-31T12:03:43.984Z,31.00
2019-03-31T12:06:12.098Z,33.40
2019-03-31T12:08:41.293Z,34.20
2019-03-31T12:11:08.702Z,33.90
2019-03-31T12:13:37.847Z,31.80
2019-03-31T12:16:04.467Z,32.10
2019-03-31T12:18:33.296Z,36.70
2019-03-31T12:21:02.862Z,34.00
2019-03-31T12:23:30.160Z,32.70
2019-03-31T12:25:57.211Z,30.80
2019-03-31T12:28:23.758Z,33.40
2019-03-31T12:31:03.050Z,29.70
2019-03-31T12:33:44.564Z,28.60
2019-03-31T12:36:11.197Z,27.90
2019-03-31T12:38:37.744Z,29.90
2019-03-31T12:41:04.218Z,29.90
2019-03-31T12:43:30.830Z,30.10
2019-03-31T12:45:57.361Z,29.80
2019-03-31T12:48:23.941Z,29.30
2019-03-31T12:50:50.705Z,28.20
2019-03-31T12:53:17.315Z,27.40
2019-03-31T12:55:43.983Z,27.40
2019-03-31T12:58:10.596Z,27.00
2019-03-31T13:00:37.127Z,27.50
2019-03-31T13:03:03.617Z,27.60
2019-03-31T13:05:30.024Z,26.70
2019-03-31T13:07:57.074Z,26.00
2019-03-31T13:10:23.580Z,27.10
2019-03-31T13:12:50.007Z,26.70
2019-03-31T13:15:16.812Z,27.00
2019-03-31T13:17:44.022Z,25.20
2019-03-31T13:20:10.565Z,25.70
2019-03-31T13:22:36.999Z,26.80
2019-03-31T13:25:05.909Z,26.50
2019-03-31T13:27:32.449Z,27.60
2019-03-31T13:29:59.001Z,26.80
2019-03-31T13:32:25.514Z,26.50
2019-03-31T13:34:51.938Z,25.70
2019-03-31T13:37:18.453Z,26.30
2019-03-31T13:39:44.986Z,26.50
2019-03-31T13:42:11.713Z,23.80
2019-03-31T13:44:40.055Z,24.90
2019-03-31T13:47:06.396Z,24.90
2019-03-31T13:49:33.047Z,23.90
2019-03-31T13:51:59.587Z,24.40
2019-03-31T13:54:25.939Z,24.00
2019-03-31T13:56:52.807Z,24.90
2019-03-31T13:59:20.099Z,25.90
2019-03-31T14:01:46.738Z,23.80
2019-03-31T14:04:13.270Z,24.40
2019-03-31T14:06:39.725Z,24.30
2019-03-31T14:09:08.317Z,29.80
2019-03-31T14:11:34.759Z,24.50
2019-03-31T14:14:01.505Z,26.20
2019-03-31T14:16:29.259Z,24.20
2019-03-31T14:18:56.095Z,24.10
2019-03-31T14:21:22.645Z,23.10
2019-03-31T14:23:49.187Z,23.30
2019-03-31T14:26:15.620Z,24.00
2019-03-31T14:28:42.017Z,24.30
2019-03-31T14:31:22.121Z,24.60
2019-03-31T14:33:48.753Z,23.30
2019-03-31T14:36:15.251Z,23.60
2019-03-31T14:38:41.692Z,22.80
2019-03-31T14:41:08.188Z,23.10
2019-03-31T14:43:34.615Z,23.70
2019-03-31T14:46:01.183Z,23.50
2019-03-31T14:48:27.649Z,22.80
2019-03-31T14:50:54.133Z,22.40
2019-03-31T14:53:20.749Z,21.60
2019-03-31T14:55:48.005Z,22.10
2019-03-31T14:58:14.908Z,21.80
2019-03-31T15:00:41.534Z,22.60
2019-03-31T15:03:08.063Z,23.90
2019-03-31T15:05:34.690Z,22.80
2019-03-31T15:08:01.228Z,24.20
2019-03-31T15:10:27.750Z,23.10
2019-03-31T15:12:54.385Z,21.80
2019-03-31T15:15:20.851Z,22.00
2019-03-31T15:17:47.171Z,22.60
2019-03-31T15:20:13.900Z,23.00
2019-03-31T15:22:40.324Z,23.00
2019-03-31T15:25:06.941Z,22.40
2019-03-31T15:27:33.482Z,22.30
2019-03-31T15:30:03.470Z,23.50
2019-03-31T15:32:29.899Z,22.90
2019-03-31T15:34:56.345Z,24.20
2019-03-31T15:37:22.876Z,22.70
2019-03-31T15:39:49.385Z,21.30
2019-03-31T15:42:26.771Z,20.90
2019-03-31T15:44:53.081Z,21.90
2019-03-31T15:47:19.610Z,20.60
2019-03-31T15:49:46.011Z,21.00
2019-03-31T15:52:12.604Z,20.80
2019-03-31T15:54:39.250Z,21.10
2019-03-31T15:57:05.825Z,22.70
2019-03-31T15:59:32.360Z,23.00
2019-03-31T16:01:58.925Z,21.30
2019-03-31T16:04:26.863Z,21.60
2019-03-31T16:06:53.379Z,21.30
2019-03-31T16:09:23.599Z,22.10
2019-03-31T16:11:53.853Z,22.00
2019-03-31T16:14:17.424Z,22.10
2019-03-31T16:16:45.554Z,22.20
2019-03-31T16:19:13.987Z,22.40
2019-03-31T16:21:45.969Z,21.40
2019-03-31T16:24:39.616Z,20.70
2019-03-31T16:27:06.180Z,20.90
2019-03-31T16:29:33.218Z,19.10
2019-03-31T16:31:59.848Z,18.50
2019-03-31T16:34:26.391Z,19.10
2019-03-31T16:36:53.015Z,21.20
2019-03-31T16:39:19.780Z,22.30
2019-03-31T16:41:46.084Z,23.00
2019-03-31T16:44:12.506Z,23.30
2019-03-31T16:46:39.980Z,23.40
2019-03-31T16:49:26.329Z,23.60
2019-03-31T16:51:54.241Z,23.50
2019-03-31T16:54:20.870Z,23.60
2019-03-31T16:56:47.331Z,23.70
2019-03-31T16:59:13.754Z,23.60
2019-03-31T17:01:40.170Z,23.70
2019-03-31T17:04:07.925Z,23.70
2019-03-31T17:06:34.981Z,23.70
2019-03-31T17:09:05.352Z,23.60
2019-03-31T17:11:33.923Z,26.00
2019-03-31T17:14:02.156Z,28.10
2019-03-31T17:16:28.870Z,32.30
2019-03-31T17:18:55.513Z,25.10
2019-03-31T17:21:24.665Z,25.30
2019-03-31T17:23:52.651Z,25.80
2019-03-31T17:26:19.499Z,26.80
2019-03-31T17:28:45.985Z,26.60
2019-03-31T17:31:15.476Z,27.50
2019-03-31T17:33:42.055Z,27.80
2019-03-31T17:36:09.428Z,29.30
2019-03-31T17:38:37.955Z,29.30
2019-03-31T17:41:04.640Z,30.00
2019-03-31T17:43:31.215Z,30.60
2019-03-31T17:45:57.711Z,30.70
2019-03-31T17:48:24.298Z,31.70
2019-03-31T17:50:51.011Z,32.30
2019-03-31T17:53:17.640Z,32.70
2019-03-31T17:55:43.937Z,32.50
2019-03-31T17:58:10.593Z,32.50
2019-03-31T18:00:37.226Z,32.90
2019-03-31T18:03:03.803Z,33.00
2019-03-31T18:05:30.172Z,33.50
2019-03-31T18:07:56.632Z,33.10
2019-03-31T18:10:23.303Z,32.80
2019-03-31T18:12:49.909Z,32.90
2019-03-31T18:15:16.460Z,32.80
2019-03-31T18:17:43.169Z,33.00
2019-03-31T18:20:09.822Z,33.50
2019-03-31T18:22:36.356Z,33.50
2019-03-31T18:25:05.454Z,33.90
2019-03-31T18:27:32.146Z,33.90
2019-03-31T18:29:58.674Z,34.00
2019-03-31T18:32:25.108Z,34.00
2019-03-31T18:34:51.731Z,33.70
2019-03-31T18:37:18.408Z,33.80
2019-03-31T18:39:45.154Z,33.20
2019-03-31T18:42:11.864Z,33.40
2019-03-31T18:44:38.580Z,33.10
2019-03-31T18:47:05.223Z,33.20
2019-03-31T18:49:31.547Z,33.40
2019-03-31T18:51:58.105Z,33.70
2019-03-31T18:54:26.633Z,33.80
2019-03-31T18:56:55.009Z,33.60
2019-03-31T18:59:38.582Z,33.90
2019-03-31T19:02:07.248Z,34.00
2019-03-31T19:04:35.660Z,33.80
2019-03-31T19:07:10.979Z,33.50
2019-03-31T19:09:45.007Z,33.60
2019-03-31T19:12:29.861Z,34.10
2019-03-31T19:14:58.298Z,34.10
2019-03-31T19:17:32.652Z,34.40
2019-03-31T19:20:10.012Z,34.30
2019-03-31T19:22:55.040Z,34.50
2019-03-31T19:25:23.487Z,34.40
2019-03-31T19:27:51.788Z,34.70
2019-03-31T19:30:23.177Z,34.60
2019-03-31T19:33:09.881Z,34.90
2019-03-31T19:35:41.268Z,34.80
2019-03-31T19:38:15.658Z,34.90
2019-03-31T19:41:03.325Z,35.20
2019-03-31T19:43:41.176Z,35.30
2019-03-31T19:46:18.842Z,35.40
2019-03-31T19:48:49.942Z,35.50
2019-03-31T19:51:27.240Z,35.30
2019-03-31T19:54:01.778Z,35.20
2019-03-31T19:56:39.018Z,35.30
2019-03-31T19:59:08.657Z,35.70
2019-03-31T20:01:53.610Z,35.70
2019-03-31T20:04:25.012Z,35.90
2019-03-31T20:07:11.619Z,36.00
2019-03-31T20:09:55.340Z,35.70
2019-03-31T20:12:29.649Z,36.30
2019-03-31T20:15:04.038Z,35.70
2019-03-31T20:17:34.347Z,35.80
2019-03-31T20:20:02.862Z,35.70
2019-03-31T20:22:40.290Z,35.50
2019-03-31T20:25:17.617Z,35.70
2019-03-31T20:27:48.863Z,35.80
2019-03-31T20:30:23.325Z,35.90
2019-03-31T20:32:56.338Z,36.10
2019-03-31T20:35:26.135Z,36.30
2019-03-31T20:38:01.556Z,36.20
2019-03-31T20:40:30.162Z,36.40
2019-03-31T20:43:01.592Z,37.00
2019-03-31T20:45:28.180Z,36.40
2019-03-31T20:47:54.906Z,36.30
2019-03-31T20:50:21.560Z,36.30
2019-03-31T20:52:48.021Z,36.30
2019-03-31T20:55:16.720Z,36.10
2019-03-31T20:57:42.963Z,36.50
2019-03-31T21:00:10.184Z,35.80
2019-03-31T21:02:37.634Z,35.70
2019-03-31T21:05:04.861Z,36.00
2019-03-31T21:07:31.287Z,36.50
2019-03-31T21:09:58.013Z,35.80
2019-03-31T21:12:24.621Z,36.20
2019-03-31T21:14:51.279Z,35.90
2019-03-31T21:17:17.942Z,35.80
2019-03-31T21:19:44.430Z,35.80
2019-03-31T21:22:11.003Z,35.80
2019-03-31T21:24:37.652Z,36.00
2019-03-31T21:27:04.074Z,35.80
2019-03-31T21:29:30.544Z,36.10
2019-03-31T21:31:56.978Z,36.30
2019-03-31T21:34:23.499Z,35.90
2019-03-31T21:36:50.005Z,36.00
2019-03-31T21:39:17.280Z,35.70
2019-03-31T21:41:43.914Z,35.70
2019-03-31T21:44:10.451Z,35.80
2019-03-31T21:46:36.991Z,36.10
2019-03-31T21:49:03.471Z,36.00
2019-03-31T21:51:29.794Z,35.90
2019-03-31T21:53:56.790Z,35.80
2019-03-31T21:56:23.121Z,36.00
2019-03-31T21:58:49.593Z,36.10
2019-03-31T22:01:16.721Z,36.30
2019-03-31T22:03:43.344Z,36.20
2019-03-31T22:06:09.938Z,36.00
2019-03-31T22:08:36.381Z,35.70
2019-03-31T22:11:02.949Z,35.40
2019-03-31T22:13:29.278Z,35.20
2019-03-31T22:15:55.672Z,34.90
2019-03-31T22:18:22.181Z,35.00
2019-03-31T22:20:48.499Z,35.00
2019-03-31T22:23:16.199Z,34.90
2019-03-31T22:25:42.825Z,35.40
2019-03-31T22:28:09.427Z,35.10
2019-03-31T22:30:36.069Z,34.90
2019-03-31T22:33:03.174Z,35.00
2019-03-31T22:35:29.912Z,34.90
2019-03-31T22:37:56.459Z,35.00
2019-03-31T22:40:22.967Z,35.20
2019-03-31T22:42:49.379Z,34.80
2019-03-31T22:45:15.764Z,34.30
2019-03-31T22:47:42.298Z,34.20
2019-03-31T22:50:08.978Z,33.90
2019-03-31T22:52:35.519Z,34.10
2019-03-31T22:55:05.066Z,34.10
2019-03-31T22:57:31.806Z,34.00
2019-03-31T22:59:58.111Z,34.30
2019-03-31T23:02:24.841Z,34.00
2019-03-31T23:04:51.375Z,34.00
2019-03-31T23:07:18.392Z,34.10
2019-03-31T23:09:44.785Z,33.50
2019-03-31T23:12:11.214Z,33.90
2019-03-31T23:14:37.513Z,33.10
2019-03-31T23:17:04.007Z,33.70
2019-03-31T23:19:30.543Z,33.50
2019-03-31T23:21:57.053Z,33.30
2019-03-31T23:24:23.475Z,33.10
2019-03-31T23:26:49.987Z,33.00
2019-03-31T23:29:16.294Z,33.40
2019-03-31T23:31:42.809Z,33.60
2019-03-31T23:34:09.343Z,33.40
2019-03-31T23:36:55.742Z,33.40
2019-03-31T23:39:22.278Z,33.40
2019-03-31T23:41:48.665Z,33.80
2019-03-31T23:44:27.928Z,33.40
2019-03-31T23:46:54.278Z,33.00
2019-03-31T23:49:21.733Z,32.70
2019-03-31T23:51:48.348Z,32.50
2019-03-31T23:54:14.860Z,32.80
2019-03-31T23:56:41.282Z,33.20
2019-03-31T23:59:07.841Z,32.90
